Time;durP1;ratioP1;P1;durP2;ratioP2;P2;SDS_P1;SDS_P2;PMS_P1;PMS_P2;Temp;Humidity;BMP_temperature;BMP_pressure;BME280_temperature;BME280_humidity;BME280_pressure;Samples;Min_cycle;Max_cycle;Signal;HPM_P1;HPM_P2
2022/09/04 00:01:43;;;;;;;4.63;2.67;;;;;;;;;;4955636;28;20038;-88
2022/09/04 00:04:17;;;;;;;6.80;2.03;;;;;;;;;;4960029;28;20501;-88
2022/09/04 00:06:50;;;;;;;7.50;2.50;;;;;;;;;;4958051;28;20493;-88
2022/09/04 00:09:27;;;;;;;6.78;1.50;;;;;;;;;;4961267;28;20061;-87
2022/09/04 00:12:12;;;;;;;4.57;2.25;;;;;;;;;;4976906;28;20039;-87
2022/09/04 00:14:52;;;;;;;3.80;1.77;;;;;;;;;;4977491;28;20073;-87
2022/09/04 00:17:21;;;;;;;4.35;2.42;;;;;;;;;;4977956;28;20432;-87
2022/09/04 00:19:47;;;;;;;3.50;1.88;;;;;;;;;;4973875;28;20046;-87
2022/09/04 00:22:31;;;;;;;3.20;2.00;;;;;;;;;;4962893;28;20026;-87
2022/09/04 00:25:06;;;;;;;5.95;2.78;;;;;;;;;;4962889;28;20129;-88
2022/09/04 00:27:42;;;;;;;6.93;3.22;;;;;;;;;;4977550;28;21060;-87
2022/09/04 00:30:10;;;;;;;;;;;;;;;;;;4978955;28;20050;-88
2022/09/04 00:32:57;;;;;;;4.78;1.65;;;;;;;;;;4978426;28;20365;-88
2022/09/04 00:35:30;;;;;;;6.40;2.20;;;;;;;;;;4982816;28;20043;-88
2022/09/04 00:38:00;;;;;;;9.77;3.25;;;;;;;;;;4966586;28;20090;-88
2022/09/04 00:40:32;;;;;;;6.20;1.83;;;;;;;;;;4960042;28;20027;-88
2022/09/04 00:43:01;;;;;;;3.70;2.10;;;;;;;;;;4962632;28;20722;-88
2022/09/04 00:45:26;;;;;;;5.97;2.13;;;;;;;;;;4964975;28;20438;-88
2022/09/04 00:48:11;;;;;;;8.75;2.13;;;;;;;;;;4977067;28;20035;-88
2022/09/04 00:50:56;;;;;;;6.15;2.03;;;;;;;;;;4978426;28;20043;-88
2022/09/04 00:53:52;;;;;;;17.05;2.58;;;;;;;;;;4958688;28;20303;-88
2022/09/04 00:56:37;;;;;;;2.78;1.90;;;;;;;;;;4955190;28;20412;-88
2022/09/04 00:59:14;;;;;;;2.85;1.80;;;;;;;;;;4962582;28;20034;-87
2022/09/04 01:01:43;;;;;;;5.30;2.08;;;;;;;;;;4964426;28;20097;-88
2022/09/04 01:04:28;;;;;;;8.85;1.98;;;;;;;;;;4967056;28;20030;-88
2022/09/04 01:07:03;;;;;;;8.15;2.10;;;;;;;;;;4979687;28;20030;-88
2022/09/04 01:09:37;;;;;;;8.35;2.13;;;;;;;;;;4965431;28;20509;-87
2022/09/04 01:12:08;;;;;;;9.25;2.10;;;;;;;;;;4972096;28;21096;-88
2022/09/04 01:14:54;;;;;;;3.50;1.95;;;;;;;;;;4975351;28;20043;-88
2022/09/04 01:17:28;;;;;;;3.30;2.00;;;;;;;;;;4979021;28;20033;-88
2022/09/04 01:20:00;;;;;;;6.70;1.90;;;;;;;;;;4967808;28;20047;-88
2022/09/04 01:22:32;;;;;;;2.97;1.83;;;;;;;;;;4983332;28;20034;-88
2022/09/04 01:25:17;;;;;;;2.50;1.92;;;;;;;;;;4968313;28;20023;-88
2022/09/04 01:28:17;;;;;;;3.65;2.25;;;;;;;;;;4969333;28;20113;-87
2022/09/04 01:30:55;;;;;;;3.92;2.30;;;;;;;;;;4924112;28;20363;-88
2022/09/04 01:33:31;;;;;;;3.42;2.13;;;;;;;;;;4955876;28;20041;-88
2022/09/04 01:36:16;;;;;;;5.10;2.05;;;;;;;;;;4942688;28;20031;-88
2022/09/04 01:38:42;;;;;;;5.18;2.30;;;;;;;;;;4941631;28;20030;-88
2022/09/04 01:41:14;;;;;;;4.32;2.30;;;;;;;;;;4947872;28;22116;-87
2022/09/04 01:43:40;;;;;;;6.93;2.40;;;;;;;;;;4947475;28;20031;-88
2022/09/04 01:46:09;;;;;;;2.78;2.13;;;;;;;;;;4945357;28;20038;-89
2022/09/04 01:48:39;;;;;;;4.05;2.03;;;;;;;;;;4959881;28;20391;-87
2022/09/04 01:51:25;;;;;;;7.03;2.50;;;;;;;;;;4948067;28;20507;-87
2022/09/04 01:54:11;;;;;;;4.68;2.40;;;;;;;;;;4924450;28;20055;-87
2022/09/04 01:56:37;;;;;;;10.77;2.25;;;;;;;;;;4959298;28;20558;-87
2022/09/04 01:59:30;;;;;;;6.32;2.38;;;;;;;;;;4948236;28;20102;-88
2022/09/04 02:01:59;;;;;;;5.90;2.45;;;;;;;;;;4943013;28;20046;-88
2022/09/04 02:04:48;;;;;;;6.18;2.38;;;;;;;;;;4945276;28;20035;-88
2022/09/04 02:07:22;;;;;;;6.13;2.83;;;;;;;;;;4934984;28;20049;-87
2022/09/04 02:10:10;;;;;;;4.00;2.15;;;;;;;;;;4963300;28;20046;-87
2022/09/04 02:12:41;;;;;;;5.10;2.40;;;;;;;;;;4947767;28;20077;-88
2022/09/04 02:15:16;;;;;;;6.97;2.03;;;;;;;;;;4965215;28;20046;-88
2022/09/04 02:17:47;;;;;;;4.10;2.35;;;;;;;;;;4960883;28;20059;-89
2022/09/04 02:20:27;;;;;;;4.45;2.40;;;;;;;;;;4960752;28;20027;-89
2022/09/04 02:23:12;;;;;;;8.27;2.47;;;;;;;;;;4947974;28;20874;-88
2022/09/04 02:25:44;;;;;;;6.50;1.95;;;;;;;;;;4960232;28;20042;-88
2022/09/04 02:28:36;;;;;;;6.40;2.40;;;;;;;;;;4691240;28;8034397;-88
2022/09/04 02:31:11;;;;;;;9.95;2.97;;;;;;;;;;4966511;28;20366;-89
2022/09/04 02:33:46;;;;;;;4.97;2.63;;;;;;;;;;4966669;28;20030;-88
2022/09/04 02:36:18;;;;;;;10.68;2.75;;;;;;;;;;4961086;28;20300;-88
2022/09/04 02:38:56;;;;;;;4.10;2.45;;;;;;;;;;4965669;28;20722;-87
2022/09/04 02:41:22;;;;;;;4.18;2.17;;;;;;;;;;4960126;28;20030;-86
2022/09/04 02:44:02;;;;;;;4.15;2.13;;;;;;;;;;4984604;28;20038;-87
2022/09/04 02:46:46;;;;;;;8.93;2.60;;;;;;;;;;4981555;28;20470;-87
2022/09/04 02:49:12;;;;;;;4.40;2.45;;;;;;;;;;4970788;28;20038;-87
2022/09/04 02:51:48;;;;;;;3.33;2.22;;;;;;;;;;4979766;28;20089;-88
2022/09/04 02:54:20;;;;;;;5.68;2.67;;;;;;;;;;4964387;28;20496;-88
2022/09/04 02:56:59;;;;;;;3.15;2.13;;;;;;;;;;4967668;28;20023;-88
2022/09/04 02:59:37;;;;;;;12.13;2.60;;;;;;;;;;4978564;28;20022;-88
2022/09/04 03:02:04;;;;;;;3.58;2.50;;;;;;;;;;4958323;28;20093;-88
2022/09/04 03:04:33;;;;;;;3.85;2.30;;;;;;;;;;4967688;28;20438;-87
2022/09/04 03:07:05;;;;;;;4.15;2.35;;;;;;;;;;4979366;28;20497;-87
2022/09/04 03:09:36;;;;;;;3.78;2.35;;;;;;;;;;4982198;28;20843;-87
2022/09/04 03:12:13;;;;;;;4.38;2.17;;;;;;;;;;4961166;28;20062;-88
2022/09/04 03:14:39;;;;;;;5.55;2.60;;;;;;;;;;4965502;28;20038;-88
2022/09/04 03:17:15;;;;;;;3.90;2.40;;;;;;;;;;4966332;28;20056;-87
2022/09/04 03:19:58;;;;;;;5.82;2.47;;;;;;;;;;4968488;28;20030;-88
2022/09/04 03:22:30;;;;;;;5.10;2.22;;;;;;;;;;4965884;28;20022;-88
2022/09/04 03:24:59;;;;;;;6.22;2.22;;;;;;;;;;4966883;28;20034;-87
2022/09/04 03:27:25;;;;;;;4.32;2.60;;;;;;;;;;4964955;28;20073;-87
2022/09/04 03:29:57;;;;;;;3.42;2.20;;;;;;;;;;4977894;28;20462;-88
2022/09/04 03:32:26;;;;;;;7.00;2.17;;;;;;;;;;4978668;28;20142;-87
2022/09/04 03:34:59;;;;;;;2.95;2.40;;;;;;;;;;4976225;28;20039;-87
2022/09/04 03:37:31;;;;;;;6.05;2.40;;;;;;;;;;4960014;28;20035;-87
2022/09/04 03:40:15;;;;;;;6.97;2.42;;;;;;;;;;4982846;28;20065;-88
2022/09/04 03:43:06;;;;;;;4.57;2.63;;;;;;;;;;4967586;28;20034;-87
2022/09/04 03:45:44;;;;;;;4.80;2.15;;;;;;;;;;4965470;28;20034;-88
2022/09/04 03:48:10;;;;;;;4.90;2.45;;;;;;;;;;4977956;28;20105;-88
2022/09/04 03:50:57;;;;;;;3.95;2.50;;;;;;;;;;4967710;28;20098;-88
2022/09/04 03:53:26;;;;;;;9.23;2.65;;;;;;;;;;4969509;28;20478;-88
2022/09/04 03:56:01;;;;;;;4.18;2.38;;;;;;;;;;4977717;28;20498;-88
2022/09/04 03:58:36;;;;;;;6.10;2.78;;;;;;;;;;4965697;28;20038;-88
2022/09/04 04:01:12;;;;;;;3.65;2.38;;;;;;;;;;4981881;28;20700;-88
2022/09/04 04:03:56;;;;;;;4.80;2.35;;;;;;;;;;4966517;28;20026;-87
2022/09/04 04:06:28;;;;;;;5.32;2.95;;;;;;;;;;4977209;28;20735;-87
2022/09/04 04:08:57;;;;;;;4.28;2.20;;;;;;;;;;4963512;28;20474;-86
2022/09/04 04:11:44;;;;;;;5.97;2.22;;;;;;;;;;4980389;28;20170;-87
2022/09/04 04:14:13;;;;;;;6.80;2.90;;;;;;;;;;4965250;28;20042;-87
2022/09/04 04:16:51;;;;;;;4.60;2.30;;;;;;;;;;4965890;28;21019;-87
2022/09/04 04:19:35;;;;;;;5.95;2.67;;;;;;;;;;4962281;28;20037;-87
2022/09/04 04:22:21;;;;;;;7.05;2.50;;;;;;;;;;4964141;28;20033;-87
2022/09/04 04:25:05;;;;;;;6.15;2.78;;;;;;;;;;4965847;28;20050;-88
2022/09/04 04:27:44;;;;;;;10.60;2.53;;;;;;;;;;4965286;28;20076;-88
2022/09/04 04:30:16;;;;;;;6.18;2.58;;;;;;;;;;4972330;28;20066;-88
2022/09/04 04:32:51;;;;;;;7.47;2.47;;;;;;;;;;4962220;28;20255;-87
2022/09/04 04:35:23;;;;;;;6.57;2.70;;;;;;;;;;4962371;28;20812;-87
2022/09/04 04:37:50;;;;;;;8.07;3.08;;;;;;;;;;4966626;28;20029;-88
2022/09/04 04:40:25;;;;;;;4.15;2.60;;;;;;;;;;4979262;28;20508;-87
2022/09/04 04:42:57;;;;;;;8.10;2.60;;;;;;;;;;4961857;28;20030;-88
2022/09/04 04:45:49;;;;;;;3.22;2.50;;;;;;;;;;4960142;28;20301;-88
2022/09/04 04:48:35;;;;;;;5.25;2.40;;;;;;;;;;4963119;28;20124;-87
2022/09/04 04:51:13;;;;;;;7.00;2.65;;;;;;;;;;4968898;28;20435;-87
2022/09/04 04:53:56;;;;;;;9.65;4.22;;;;;;;;;;4967606;28;20482;-88
2022/09/04 04:56:30;;;;;;;6.68;2.63;;;;;;;;;;4969612;28;20034;-88
2022/09/04 04:59:05;;;;;;;5.70;2.83;;;;;;;;;;4962786;28;20852;-88
2022/09/04 05:01:37;;;;;;;5.18;2.80;;;;;;;;;;4965684;28;20375;-88
2022/09/04 05:04:12;;;;;;;7.97;3.10;;;;;;;;;;4966322;28;20031;-87
2022/09/04 05:06:41;;;;;;;3.70;2.67;;;;;;;;;;4984258;28;20023;-87
2022/09/04 05:09:19;;;;;;;5.35;2.78;;;;;;;;;;4979791;28;20034;-88
2022/09/04 05:11:51;;;;;;;6.07;2.78;;;;;;;;;;4984028;28;20509;-88
2022/09/04 05:14:17;;;;;;;7.05;3.42;;;;;;;;;;4968117;28;20046;-89
2022/09/04 05:17:02;;;;;;;8.32;3.00;;;;;;;;;;4980671;28;20023;-89
2022/09/04 05:19:47;;;;;;;6.68;2.42;;;;;;;;;;4966795;28;20038;-89
2022/09/04 05:22:13;;;;;;;5.68;2.42;;;;;;;;;;4966435;28;20058;-88
2022/09/04 05:24:51;;;;;;;6.85;2.65;;;;;;;;;;4973412;28;20379;-88
2022/09/04 05:27:23;;;;;;;10.60;2.65;;;;;;;;;;4966256;28;20034;-88
2022/09/04 05:30:01;;;;;;;5.22;3.25;;;;;;;;;;4968994;28;20045;-88
2022/09/04 05:32:30;;;;;;;7.03;2.95;;;;;;;;;;4957436;28;20035;-88
2022/09/04 05:34:56;;;;;;;5.53;2.63;;;;;;;;;;4966579;28;20065;-88
2022/09/04 05:37:28;;;;;;;4.65;2.95;;;;;;;;;;4954328;28;20038;-88
2022/09/04 05:39:54;;;;;;;7.57;3.08;;;;;;;;;;4975014;28;20033;-88
2022/09/04 05:42:23;;;;;;;4.38;2.53;;;;;;;;;;4980020;28;20030;-88
2022/09/04 05:44:49;;;;;;;4.07;2.65;;;;;;;;;;4982547;28;20038;-88
2022/09/04 05:47:39;;;;;;;4.97;2.80;;;;;;;;;;4984521;28;20029;-89
2022/09/04 05:50:31;;;;;;;6.72;2.60;;;;;;;;;;4984903;28;20519;-88
2022/09/04 05:52:58;;;;;;;6.00;3.17;;;;;;;;;;4976736;28;20046;-88
2022/09/04 05:55:31;;;;;;;4.75;2.53;;;;;;;;;;4965209;28;20038;-89
2022/09/04 05:58:21;;;;;;;4.53;3.03;;;;;;;;;;4971310;28;20034;-89
2022/09/04 06:00:50;;;;;;;5.70;2.97;;;;;;;;;;4980994;28;20058;-89
2022/09/04 06:03:33;;;;;;;5.10;2.72;;;;;;;;;;4980529;28;20490;-89
2022/09/04 06:06:18;;;;;;;5.43;2.95;;;;;;;;;;4965956;28;20470;-88
2022/09/04 06:08:50;;;;;;;3.35;2.13;;;;;;;;;;4982247;28;20041;-89
2022/09/04 06:11:35;;;;;;;6.03;2.42;;;;;;;;;;4965909;28;20046;-88
2022/09/04 06:14:01;;;;;;;9.02;2.50;;;;;;;;;;4968438;28;20042;-88
2022/09/04 06:16:42;;;;;;;10.80;2.70;;;;;;;;;;4981737;28;20118;-88
2022/09/04 06:19:19;;;;;;;6.28;3.15;;;;;;;;;;4981641;28;20129;-87
2022/09/04 06:21:51;;;;;;;3.78;2.45;;;;;;;;;;4967488;28;20026;-88
2022/09/04 06:24:25;;;;;;;4.28;2.60;;;;;;;;;;4982916;28;20030;-88
2022/09/04 06:26:54;;;;;;;6.03;2.80;;;;;;;;;;4983888;28;20034;-88
2022/09/04 06:29:35;;;;;;;4.13;2.60;;;;;;;;;;4960876;28;20077;-88
2022/09/04 06:32:27;;;;;;;5.82;2.67;;;;;;;;;;4981719;28;20109;-88
2022/09/04 06:34:57;;;;;;;21.83;3.28;;;;;;;;;;4965619;28;20617;-87
2022/09/04 06:37:42;;;;;;;8.35;2.92;;;;;;;;;;4979504;28;20578;-88
2022/09/04 06:40:14;;;;;;;12.90;2.75;;;;;;;;;;4965619;28;20649;-90
2022/09/04 06:42:46;;;;;;;8.55;2.45;;;;;;;;;;4959784;28;20031;-89
2022/09/04 06:45:30;;;;;;;6.68;3.15;;;;;;;;;;4973664;28;20035;-89
2022/09/04 06:48:02;;;;;;;4.40;2.42;;;;;;;;;;4961115;28;20038;-88
2022/09/04 06:50:48;;;;;;;10.48;3.63;;;;;;;;;;4972061;28;20027;-88
2022/09/04 06:53:17;;;;;;;4.40;2.58;;;;;;;;;;4958108;28;20057;-87
2022/09/04 06:55:56;;;;;;;4.25;2.60;;;;;;;;;;4960754;28;20478;-88
2022/09/04 06:58:38;;;;;;;6.40;2.67;;;;;;;;;;4963220;28;20065;-88
2022/09/04 07:01:18;;;;;;;4.40;2.60;;;;;;;;;;4975056;28;20121;-88
2022/09/04 07:03:50;;;;;;;10.60;3.10;;;;;;;;;;4984473;28;20474;-89
2022/09/04 07:06:21;;;;;;;4.80;3.03;;;;;;;;;;4978302;28;20026;-88
2022/09/04 07:08:57;;;;;;;5.20;2.60;;;;;;;;;;4967018;28;20557;-89
2022/09/04 07:11:42;;;;;;;7.22;3.03;;;;;;;;;;4979212;28;20054;-89
2022/09/04 07:14:28;;;;;;;5.13;3.45;;;;;;;;;;4980301;28;20168;-89
2022/09/04 07:16:54;;;;;;;7.18;2.80;;;;;;;;;;4969420;28;20065;-89
2022/09/04 07:19:59;;;;;;;6.70;3.10;;;;;;;;;;4967393;28;20180;-89
2022/09/04 07:22:43;;;;;;;5.78;2.83;;;;;;;;;;4905110;29;20080;-90
2022/09/04 07:25:22;;;;;;;9.77;2.85;;;;;;;;;;4890304;29;20036;-88
2022/09/04 07:28:09;;;;;;;6.68;2.85;;;;;;;;;;4945908;28;20089;-90
2022/09/04 07:30:43;;;;;;;3.25;2.47;;;;;;;;;;4965075;28;20052;-89
2022/09/04 07:33:15;;;;;;;8.13;2.85;;;;;;;;;;4969818;28;20486;-89
2022/09/04 07:35:44;;;;;;;7.22;2.92;;;;;;;;;;4968984;28;20085;-88
2022/09/04 07:38:26;;;;;;;7.72;3.03;;;;;;;;;;4964220;28;20034;-88
2022/09/04 07:40:57;;;;;;;5.20;3.08;;;;;;;;;;4979243;28;20050;-88
2022/09/04 07:43:29;;;;;;;8.18;2.90;;;;;;;;;;4978953;28;20053;-87
2022/09/04 07:46:12;;;;;;;7.25;2.83;;;;;;;;;;4965769;28;20066;-87
2022/09/04 07:48:43;;;;;;;5.78;2.78;;;;;;;;;;4978267;28;20037;-88
2022/09/04 07:51:15;;;;;;;3.90;2.60;;;;;;;;;;4965654;28;20092;-86
2022/09/04 07:53:51;;;;;;;4.95;3.00;;;;;;;;;;4965105;28;21282;-87
2022/09/04 07:56:36;;;;;;;4.95;2.97;;;;;;;;;;4966101;28;20034;-89
2022/09/04 07:59:08;;;;;;;5.50;2.83;;;;;;;;;;4959229;28;20042;-88
2022/09/04 08:01:55;;;;;;;7.15;2.72;;;;;;;;;;4960110;28;20032;-87
2022/09/04 08:04:20;;;;;;;;;;;;;;;;;;4960646;28;20137;-86
2022/09/04 08:06:57;;;;;;;7.30;3.08;;;;;;;;;;4962085;28;19992;-86
2022/09/04 08:09:42;;;;;;;5.13;2.40;;;;;;;;;;4967029;28;20553;-87
2022/09/04 08:12:24;;;;;;;7.65;2.95;;;;;;;;;;4962962;28;20310;-86
2022/09/04 08:14:55;;;;;;;4.70;2.55;;;;;;;;;;4959818;28;20134;-87
2022/09/04 08:17:24;;;;;;;7.63;2.55;;;;;;;;;;4963657;28;20038;-87
2022/09/04 08:19:50;;;;;;;6.60;2.97;;;;;;;;;;4975940;28;20026;-87
2022/09/04 08:22:31;;;;;;;4.32;3.13;;;;;;;;;;4965469;28;20024;-86
2022/09/04 08:25:05;;;;;;;4.00;2.63;;;;;;;;;;4978173;28;20034;-86
2022/09/04 08:27:50;;;;;;;4.95;2.60;;;;;;;;;;4969574;28;20498;-86
2022/09/04 08:30:19;;;;;;;5.75;2.55;;;;;;;;;;4977765;28;20058;-85
2022/09/04 08:33:02;;;;;;;6.28;2.80;;;;;;;;;;4962598;28;20357;-86
2022/09/04 08:35:47;;;;;;;6.45;2.85;;;;;;;;;;4977741;28;20030;-86
2022/09/04 08:38:32;;;;;;;6.88;2.63;;;;;;;;;;4976926;28;20688;-86
2022/09/04 08:41:17;;;;;;;6.72;2.75;;;;;;;;;;4973082;28;20058;-86
2022/09/04 08:44:02;;;;;;;5.30;2.75;;;;;;;;;;4965182;28;20113;-86
2022/09/04 08:46:28;;;;;;;4.32;2.63;;;;;;;;;;4982905;28;20499;-86
2022/09/04 08:49:08;;;;;;;4.38;2.80;;;;;;;;;;4962197;28;20039;-86
2022/09/04 08:51:51;;;;;;;10.35;3.55;;;;;;;;;;4977646;28;20034;-86
2022/09/04 08:54:30;;;;;;;6.32;2.83;;;;;;;;;;4964900;28;20483;-86
2022/09/04 08:57:16;;;;;;;9.43;2.95;;;;;;;;;;4981249;28;20064;-86
2022/09/04 08:59:45;;;;;;;4.80;2.83;;;;;;;;;;4972958;28;22095;-86
2022/09/04 09:02:18;;;;;;;9.43;2.63;;;;;;;;;;4959130;28;20037;-86
2022/09/04 09:05:02;;;;;;;4.75;2.80;;;;;;;;;;4965304;28;20191;-86
2022/09/04 09:07:47;;;;;;;4.90;2.90;;;;;;;;;;4959895;28;20027;-86
2022/09/04 09:10:32;;;;;;;4.88;2.85;;;;;;;;;;4959177;28;20080;-86
2022/09/04 09:13:16;;;;;;;6.00;2.83;;;;;;;;;;4959490;28;20062;-87
2022/09/04 09:15:42;;;;;;;5.50;2.70;;;;;;;;;;4968925;28;20474;-86
2022/09/04 09:18:21;;;;;;;5.22;3.08;;;;;;;;;;4981250;28;20026;-86
2022/09/04 09:21:00;;;;;;;4.53;2.90;;;;;;;;;;4979916;28;20122;-86
2022/09/04 09:23:37;;;;;;;7.05;2.90;;;;;;;;;;4960378;28;20494;-86
2022/09/04 09:26:22;;;;;;;7.43;2.65;;;;;;;;;;4975558;28;20173;-87
2022/09/04 09:28:57;;;;;;;5.77;2.50;;;;;;;;;;4964342;28;20122;-86
2022/09/04 09:31:42;;;;;;;3.25;2.45;;;;;;;;;;4958977;28;20300;-87
2022/09/04 09:34:32;;;;;;;4.97;3.03;;;;;;;;;;4954991;28;20035;-87
2022/09/04 09:37:01;;;;;;;3.20;2.25;;;;;;;;;;4955448;28;20679;-86
2022/09/04 09:39:27;;;;;;;2.70;2.20;;;;;;;;;;4967822;28;20038;-86
2022/09/04 09:42:12;;;;;;;5.88;2.25;;;;;;;;;;4982817;28;20034;-86
2022/09/04 09:44:40;;;;;;;5.45;2.53;;;;;;;;;;4965937;28;20053;-86
2022/09/04 09:47:37;;;;;;;5.93;2.90;;;;;;;;;;4969519;28;20030;-86
2022/09/04 09:50:03;;;;;;;3.90;2.25;;;;;;;;;;4962385;28;20068;-86
2022/09/04 09:52:29;;;;;;;3.58;2.42;;;;;;;;;;4969983;28;20468;-86
2022/09/04 09:55:18;;;;;;;5.35;3.10;;;;;;;;;;4968591;28;20026;-86
2022/09/04 09:57:47;;;;;;;6.53;2.67;;;;;;;;;;4969997;28;20301;-86
2022/09/04 10:00:18;;;;;;;2.90;2.25;;;;;;;;;;4966818;28;20374;-86
2022/09/04 10:03:03;;;;;;;4.40;2.53;;;;;;;;;;4981383;28;20060;-86
2022/09/04 10:05:44;;;;;;;2.75;2.13;;;;;;;;;;4969818;28;20040;-87
2022/09/04 10:08:13;;;;;;;7.78;2.92;;;;;;;;;;4964129;28;20423;-86
2022/09/04 10:10:58;;;;;;;3.58;2.40;;;;;;;;;;4965980;28;20075;-87
2022/09/04 10:13:43;;;;;;;3.07;1.97;;;;;;;;;;4979333;28;20038;-86
2022/09/04 10:16:28;;;;;;;3.88;2.08;;;;;;;;;;4977546;28;20049;-88
2022/09/04 10:19:15;;;;;;;2.97;2.13;;;;;;;;;;4962448;28;20402;-87
2022/09/04 10:22:00;;;;;;;2.65;2.28;;;;;;;;;;4964372;28;20390;-87
2022/09/04 10:24:45;;;;;;;4.13;2.40;;;;;;;;;;4965124;28;20026;-87
2022/09/04 10:27:26;;;;;;;2.13;1.92;;;;;;;;;;4983244;28;20049;-87
2022/09/04 10:30:19;;;;;;;3.15;2.05;;;;;;;;;;4970758;28;20062;-88
2022/09/04 10:33:09;;;;;;;6.93;2.60;;;;;;;;;;4981263;28;20050;-88
2022/09/04 10:35:35;;;;;;;2.38;1.98;;;;;;;;;;4981359;28;20038;-87
2022/09/04 10:38:13;;;;;;;3.78;1.90;;;;;;;;;;4967475;28;20394;-87
2022/09/04 10:40:48;;;;;;;3.13;1.98;;;;;;;;;;4968399;28;20055;-87
2022/09/04 10:43:33;;;;;;;5.80;1.90;;;;;;;;;;4981547;28;20054;-87
2022/09/04 10:46:04;;;;;;;3.13;1.88;;;;;;;;;;4960052;28;20251;-87
2022/09/04 10:48:33;;;;;;;5.68;2.22;;;;;;;;;;4984020;28;20464;-88
2022/09/04 10:51:09;;;;;;;6.60;1.88;;;;;;;;;;4982341;28;20402;-87
2022/09/04 10:53:55;;;;;;;3.78;1.80;;;;;;;;;;4959603;28;20030;-87
2022/09/04 10:56:33;;;;;;;5.78;2.03;;;;;;;;;;4983478;28;20478;-87
2022/09/04 10:58:59;;;;;;;3.80;2.20;;;;;;;;;;4973570;28;20115;-87
2022/09/04 11:01:26;;;;;;;2.13;1.92;;;;;;;;;;4966365;28;20073;-87
2022/09/04 11:04:12;;;;;;;7.00;1.98;;;;;;;;;;4975498;28;20081;-87
2022/09/04 11:06:42;;;;;;;6.18;1.90;;;;;;;;;;4985260;28;20415;-87
2022/09/04 11:09:14;;;;;;;2.75;1.90;;;;;;;;;;4969950;28;20031;-87
2022/09/04 11:11:51;;;;;;;3.72;2.08;;;;;;;;;;4968083;28;20030;-87
2022/09/04 11:14:36;;;;;;;5.22;2.25;;;;;;;;;;4965801;28;20039;-87
2022/09/04 11:17:29;;;;;;;5.43;2.05;;;;;;;;;;4980226;28;20027;-88
2022/09/04 11:20:14;;;;;;;8.27;2.10;;;;;;;;;;4965733;28;20036;-87
2022/09/04 11:22:40;;;;;;;10.85;2.47;;;;;;;;;;4967621;28;20026;-87
2022/09/04 11:25:06;;;;;;;5.10;2.10;;;;;;;;;;4969835;28;20497;-87
2022/09/04 11:27:50;;;;;;;4.97;2.15;;;;;;;;;;4968534;28;20437;-87
2022/09/04 11:30:22;;;;;;;5.43;2.40;;;;;;;;;;4955469;28;20202;-88
2022/09/04 11:33:21;;;;;;;2.50;1.95;;;;;;;;;;4943816;28;20627;-87
2022/09/04 11:35:50;;;;;;;3.20;2.00;;;;;;;;;;4948472;28;20026;-87
2022/09/04 11:38:28;;;;;;;7.57;2.22;;;;;;;;;;4949368;28;20045;-88
2022/09/04 11:41:14;;;;;;;9.77;2.33;;;;;;;;;;4944737;28;20090;-87
2022/09/04 11:43:40;;;;;;;5.95;2.08;;;;;;;;;;4947447;28;20038;-87
2022/09/04 11:46:09;;;;;;;4.00;2.20;;;;;;;;;;4948627;28;20371;-88
2022/09/04 11:48:54;;;;;;;6.65;2.35;;;;;;;;;;4961312;28;20038;-88
2022/09/04 11:51:27;;;;;;;6.95;2.15;;;;;;;;;;4942524;28;20034;-88
2022/09/04 11:54:12;;;;;;;3.80;2.00;;;;;;;;;;4957829;28;20476;-88
2022/09/04 11:56:56;;;;;;;6.18;2.22;;;;;;;;;;4956765;28;20476;-88
2022/09/04 11:59:28;;;;;;;3.67;1.98;;;;;;;;;;4937312;28;20042;-88
2022/09/04 12:02:22;;;;;;;9.88;2.08;;;;;;;;;;4945783;28;20027;-87
2022/09/04 12:05:07;;;;;;;5.97;2.60;;;;;;;;;;4945433;28;20035;-87
2022/09/04 12:07:36;;;;;;;4.03;2.33;;;;;;;;;;4943924;28;21063;-87
2022/09/04 12:10:16;;;;;;;5.07;2.30;;;;;;;;;;4966366;28;20534;-88
2022/09/04 12:12:56;;;;;;;8.70;2.03;;;;;;;;;;4944002;28;20091;-90
2022/09/04 12:15:37;;;;;;;5.70;2.03;;;;;;;;;;4959212;28;20535;-87
2022/09/04 12:18:23;;;;;;;4.50;1.92;;;;;;;;;;4942507;28;20037;-87
2022/09/04 12:20:54;;;;;;;5.60;2.72;;;;;;;;;;4943827;28;20045;-86
2022/09/04 12:23:29;;;;;;;4.38;2.50;;;;;;;;;;4937374;28;20090;-87
2022/09/04 12:26:33;;;;;;;10.98;2.20;;;;;;;;;;4963321;28;20037;-87
2022/09/04 12:29:18;;;;;;;3.63;1.73;;;;;;;;;;4875376;28;20044;-88
2022/09/04 12:32:07;;;;;;;4.78;2.08;;;;;;;;;;4880545;29;20041;-87
2022/09/04 12:34:45;;;;;;;3.50;1.98;;;;;;;;;;4921568;28;20389;-87
2022/09/04 12:37:18;;;;;;;5.45;2.10;;;;;;;;;;4938109;28;20616;-87
2022/09/04 12:39:45;;;;;;;3.55;1.92;;;;;;;;;;4957635;28;20027;-87
2022/09/04 12:42:14;;;;;;;4.78;2.10;;;;;;;;;;4947141;28;20057;-87
2022/09/04 12:44:44;;;;;;;2.33;1.63;;;;;;;;;;4951371;28;20027;-87
2022/09/04 12:47:13;;;;;;;4.03;2.20;;;;;;;;;;4944901;28;20030;-86
2022/09/04 12:49:58;;;;;;;4.40;2.08;;;;;;;;;;4957405;28;20644;-87
2022/09/04 12:52:34;;;;;;;5.75;1.90;;;;;;;;;;4960545;28;20155;-88
2022/09/04 12:55:03;;;;;;;2.97;2.13;;;;;;;;;;4963967;28;20821;-87
2022/09/04 12:57:59;;;;;;;5.60;2.50;;;;;;;;;;4957387;28;20034;-88
2022/09/04 13:00:32;;;;;;;5.68;2.35;;;;;;;;;;4929937;28;20039;-87
2022/09/04 13:03:18;;;;;;;4.95;2.85;;;;;;;;;;4946316;28;20035;-87
2022/09/04 13:05:44;;;;;;;4.63;2.17;;;;;;;;;;4954235;28;20033;-87
2022/09/04 13:08:13;;;;;;;4.63;2.03;;;;;;;;;;4945723;28;20082;-87
2022/09/04 13:10:59;;;;;;;2.40;2.00;;;;;;;;;;4943874;28;20118;-87
2022/09/04 13:13:32;;;;;;;5.05;2.10;;;;;;;;;;4960294;28;20490;-87
2022/09/04 13:16:21;;;;;;;3.40;2.28;;;;;;;;;;4949764;28;20844;-87
2022/09/04 13:18:59;;;;;;;3.92;2.53;;;;;;;;;;4935521;28;20483;-87
2022/09/04 13:21:25;;;;;;;3.05;1.83;;;;;;;;;;4952007;28;20082;-87
2022/09/04 13:23:56;;;;;;;3.03;1.88;;;;;;;;;;4941178;28;20627;-87
2022/09/04 13:26:44;;;;;;;3.53;1.85;;;;;;;;;;4959623;28;20041;-87
2022/09/04 13:29:23;;;;;;;3.60;2.20;;;;;;;;;;4949902;28;20098;-87
2022/09/04 13:31:49;;;;;;;12.10;1.80;;;;;;;;;;4968673;28;20046;-87
2022/09/04 13:34:46;;;;;;;3.35;1.65;;;;;;;;;;4977744;28;20085;-86
2022/09/04 13:37:23;;;;;;;5.45;1.70;;;;;;;;;;4940991;28;21062;-87
2022/09/04 13:39:56;;;;;;;3.10;1.65;;;;;;;;;;4962077;28;20030;-87
2022/09/04 13:42:32;;;;;;;3.85;2.20;;;;;;;;;;4965125;28;20073;-87
2022/09/04 13:45:01;;;;;;;5.55;2.05;;;;;;;;;;4966373;28;20040;-87
2022/09/04 13:47:36;;;;;;;4.47;2.10;;;;;;;;;;4963485;28;20030;-87
2022/09/04 13:50:09;;;;;;;2.10;1.90;;;;;;;;;;4952441;28;20383;-87
2022/09/04 13:52:39;;;;;;;8.57;2.63;;;;;;;;;;4975318;28;20567;-87
2022/09/04 13:55:20;;;;;;;2.83;1.80;;;;;;;;;;4953655;28;20027;-87
2022/09/04 13:57:56;;;;;;;2.88;1.80;;;;;;;;;;4962528;28;20050;-87
2022/09/04 14:00:22;;;;;;;2.78;1.40;;;;;;;;;;4962418;28;20653;-87
2022/09/04 14:02:54;;;;;;;2.85;1.83;;;;;;;;;;4973875;28;20053;-87
2022/09/04 14:05:21;;;;;;;2.78;1.52;;;;;;;;;;4976288;28;20293;-87
2022/09/04 14:07:50;;;;;;;5.93;1.65;;;;;;;;;;4939904;28;20065;-87
2022/09/04 14:10:16;;;;;;;4.65;1.70;;;;;;;;;;4975782;28;20034;-87
2022/09/04 14:13:01;;;;;;;7.93;1.70;;;;;;;;;;4965424;28;20605;-86
2022/09/04 14:15:50;;;;;;;6.35;2.03;;;;;;;;;;4961066;28;20030;-86
2022/09/04 14:18:22;;;;;;;5.57;2.00;;;;;;;;;;4963257;28;20588;-86
2022/09/04 14:20:58;;;;;;;3.75;1.92;;;;;;;;;;4974658;28;20344;-87
2022/09/04 14:23:37;;;;;;;5.97;1.65;;;;;;;;;;4962448;28;20030;-87
2022/09/04 14:26:06;;;;;;;5.10;1.60;;;;;;;;;;4962209;28;20402;-87
2022/09/04 14:28:32;;;;;;;12.95;1.88;;;;;;;;;;4981685;28;20497;-87
2022/09/04 14:30:58;;;;;;;3.50;1.20;;;;;;;;;;4962563;28;20059;-87
2022/09/04 14:33:46;;;;;;;3.50;1.58;;;;;;;;;;4947585;28;20081;-86
2022/09/04 14:36:35;;;;;;;4.95;1.98;;;;;;;;;;4939199;28;20475;-86
2022/09/04 14:39:30;;;;;;;2.40;1.52;;;;;;;;;;4947079;28;20071;-86
2022/09/04 14:42:02;;;;;;;5.88;1.45;;;;;;;;;;4932214;28;20030;-87
2022/09/04 14:45:08;;;;;;;7.72;1.90;;;;;;;;;;4960713;28;20046;-87
2022/09/04 14:47:39;;;;;;;1.80;1.60;;;;;;;;;;4887735;29;20391;-87
2022/09/04 14:50:09;;;;;;;4.55;1.98;;;;;;;;;;4934336;28;20056;-87
2022/09/04 14:52:53;;;;;;;6.90;2.40;;;;;;;;;;4948156;28;20546;-87
2022/09/04 14:55:30;;;;;;;3.22;2.58;;;;;;;;;;4945735;28;20035;-87
2022/09/04 14:58:12;;;;;;;2.88;1.80;;;;;;;;;;4957180;28;20159;-87
2022/09/04 15:00:57;;;;;;;3.13;1.83;;;;;;;;;;4944747;28;20058;-87
2022/09/04 15:03:25;;;;;;;4.20;1.48;;;;;;;;;;4940662;28;20514;-87
2022/09/04 15:05:55;;;;;;;6.47;1.60;;;;;;;;;;4946268;28;20038;-86
2022/09/04 15:08:30;;;;;;;5.32;1.48;;;;;;;;;;4957443;28;20041;-86
2022/09/04 15:10:59;;;;;;;;;;;;;;;;;;4959549;28;20030;-86
2022/09/04 15:13:30;;;;;;;4.35;1.77;;;;;;;;;;4939017;28;19914;-86
2022/09/04 15:15:59;;;;;;;3.50;1.65;;;;;;;;;;4958088;28;20035;-86
2022/09/04 15:18:39;;;;;;;4.30;1.75;;;;;;;;;;4963416;28;20023;-87
2022/09/04 15:21:08;;;;;;;3.78;1.70;;;;;;;;;;4941009;28;20781;-87
2022/09/04 15:23:42;;;;;;;5.45;1.80;;;;;;;;;;4944701;28;20043;-87
2022/09/04 15:26:19;;;;;;;7.17;1.60;;;;;;;;;;4945425;28;21030;-87
2022/09/04 15:28:48;;;;;;;3.55;1.77;;;;;;;;;;4950195;28;20292;-87
2022/09/04 15:31:32;;;;;;;2.60;2.00;;;;;;;;;;4962158;28;20509;-87
2022/09/04 15:34:03;;;;;;;5.30;2.15;;;;;;;;;;4972091;28;20030;-87
2022/09/04 15:36:30;;;;;;;2.70;1.50;;;;;;;;;;4981601;28;20042;-87
2022/09/04 15:38:57;;;;;;;6.50;2.30;;;;;;;;;;4962829;28;20038;-88
2022/09/04 15:41:24;;;;;;;3.00;2.08;;;;;;;;;;4964724;28;20027;-87